createdAt,value
2019-02-14T00:02:04.735Z,100.00
2019-02-14T00:04:31.679Z,100.00
2019-02-14T00:06:58.623Z,100.00
2019-02-14T00:09:25.551Z,100.00
2019-02-14T00:11:52.506Z,100.00
2019-02-14T00:14:19.433Z,100.00
2019-02-14T00:16:46.367Z,100.00
2019-02-14T00:19:13.280Z,100.00
2019-02-14T00:21:40.182Z,100.00
2019-02-14T00:24:07.145Z,100.00
2019-02-14T00:26:34.061Z,100.00
2019-02-14T00:29:00.987Z,100.00
2019-02-14T00:31:27.876Z,100.00
2019-02-14T00:33:54.816Z,100.00
2019-02-14T00:36:21.714Z,100.00
2019-02-14T00:38:48.664Z,100.00
2019-02-14T00:41:15.595Z,100.00
2019-02-14T00:43:42.532Z,100.00
2019-02-14T00:46:09.425Z,100.00
2019-02-14T00:48:36.367Z,100.00
2019-02-14T00:51:03.263Z,100.00
2019-02-14T00:53:30.196Z,100.00
2019-02-14T00:55:57.123Z,100.00
2019-02-14T00:58:24.897Z,100.00
2019-02-14T01:00:51.819Z,100.00
2019-02-14T01:03:18.754Z,100.00
2019-02-14T01:05:45.665Z,100.00
2019-02-14T01:08:12.636Z,100.00
2019-02-14T01:10:39.537Z,100.00
2019-02-14T01:13:06.464Z,100.00
2019-02-14T01:15:34.694Z,100.00
2019-02-14T01:18:01.688Z,100.00
2019-02-14T01:20:28.601Z,100.00
2019-02-14T01:22:55.536Z,100.00
2019-02-14T01:25:22.423Z,100.00
2019-02-14T01:27:49.340Z,100.00
2019-02-14T01:30:16.274Z,100.00
2019-02-14T01:32:43.195Z,100.00
2019-02-14T01:35:10.228Z,100.00
2019-02-14T01:37:37.121Z,100.00
2019-02-14T01:40:04.581Z,100.00
2019-02-14T01:42:31.482Z,100.00
2019-02-14T01:44:58.451Z,100.00
2019-02-14T01:47:25.393Z,100.00
2019-02-14T01:49:52.349Z,100.00
2019-02-14T01:52:19.258Z,100.00
2019-02-14T01:54:46.202Z,100.00
2019-02-14T01:57:13.108Z,100.00
2019-02-14T01:59:40.053Z,100.00
2019-02-14T02:02:06.976Z,100.00
2019-02-14T02:04:33.922Z,100.00
2019-02-14T02:07:00.811Z,100.00
2019-02-14T02:09:27.747Z,100.00
2019-02-14T02:11:54.632Z,100.00
2019-02-14T02:14:21.592Z,100.00
2019-02-14T02:16:48.499Z,100.00
2019-02-14T02:19:15.446Z,100.00
2019-02-14T02:21:42.340Z,100.00
2019-02-14T02:24:09.288Z,100.00
2019-02-14T02:26:36.185Z,100.00
2019-02-14T02:29:03.114Z,100.00
2019-02-14T02:31:29.996Z,100.00
2019-02-14T02:33:56.934Z,100.00
2019-02-14T02:36:23.833Z,100.00
2019-02-14T02:38:50.777Z,100.00
2019-02-14T02:41:17.692Z,100.00
2019-02-14T02:43:44.616Z,100.00
2019-02-14T02:46:11.524Z,100.00
2019-02-14T02:48:38.429Z,100.00
2019-02-14T02:51:05.518Z,100.00
2019-02-14T02:53:32.422Z,100.00
2019-02-14T02:55:59.346Z,100.00
2019-02-14T02:58:26.255Z,100.00
2019-02-14T03:00:53.204Z,100.00
2019-02-14T03:03:20.126Z,100.00
2019-02-14T03:05:47.048Z,100.00
2019-02-14T03:08:14.027Z,100.00
2019-02-14T03:10:40.946Z,100.00
2019-02-14T03:13:07.837Z,100.00
2019-02-14T03:15:34.787Z,100.00
2019-02-14T03:18:01.704Z,100.00
2019-02-14T03:20:28.599Z,100.00
2019-02-14T03:22:55.484Z,100.00
2019-02-14T03:25:22.400Z,100.00
2019-02-14T03:27:49.298Z,100.00
2019-02-14T03:30:16.231Z,100.00
2019-02-14T03:32:43.102Z,100.00
2019-02-14T03:35:10.078Z,100.00
2019-02-14T03:37:36.976Z,100.00
2019-02-14T03:40:04.753Z,100.00
2019-02-14T03:42:31.653Z,100.00
2019-02-14T03:44:58.579Z,100.00
2019-02-14T03:47:25.456Z,100.00
2019-02-14T03:49:52.345Z,100.00
2019-02-14T03:52:19.277Z,100.00
2019-02-14T03:54:46.148Z,100.00
2019-02-14T03:57:13.067Z,100.00
2019-02-14T03:59:39.971Z,100.00
2019-02-14T04:02:06.912Z,100.00
2019-02-14T04:04:33.813Z,100.00
2019-02-14T04:07:00.745Z,100.00
2019-02-14T04:09:27.646Z,100.00
2019-02-14T04:11:54.559Z,100.00
2019-02-14T04:14:21.476Z,100.00
2019-02-14T04:16:48.396Z,100.00
2019-02-14T04:19:15.289Z,100.00
2019-02-14T04:21:42.199Z,100.00
2019-02-14T04:24:09.082Z,100.00
2019-02-14T04:26:35.996Z,100.00
2019-02-14T04:29:02.902Z,100.00
2019-02-14T04:31:29.817Z,100.00
2019-02-14T04:33:56.695Z,100.00
2019-02-14T04:36:23.605Z,100.00
2019-02-14T04:38:50.480Z,100.00
2019-02-14T04:41:17.411Z,100.00
2019-02-14T04:43:44.302Z,100.00
2019-02-14T04:46:11.217Z,100.00
2019-02-14T04:48:38.117Z,100.00
2019-02-14T04:51:05.119Z,100.00
2019-02-14T04:53:31.951Z,100.00
2019-02-14T04:55:58.895Z,100.00
2019-02-14T04:58:25.772Z,100.00
2019-02-14T05:00:52.676Z,100.00
2019-02-14T05:03:19.592Z,100.00
2019-02-14T05:05:46.497Z,100.00
2019-02-14T05:08:13.424Z,100.00
2019-02-14T05:10:40.356Z,100.00
2019-02-14T05:13:07.321Z,100.00
2019-02-14T05:15:34.246Z,100.00
2019-02-14T05:18:01.170Z,100.00
2019-02-14T05:20:28.069Z,100.00
2019-02-14T05:22:55.005Z,100.00
2019-02-14T05:25:21.939Z,100.00
2019-02-14T05:27:48.816Z,100.00
2019-02-14T05:30:15.750Z,100.00
2019-02-14T05:32:42.667Z,100.00
2019-02-14T05:35:09.564Z,100.00
2019-02-14T05:37:36.498Z,100.00
2019-02-14T05:40:03.984Z,100.00
2019-02-14T05:42:30.901Z,100.00
2019-02-14T05:44:57.780Z,100.00
2019-02-14T05:47:24.686Z,100.00
2019-02-14T05:49:51.569Z,100.00
2019-02-14T05:52:18.468Z,100.00
2019-02-14T05:54:45.350Z,100.00
2019-02-14T05:57:12.299Z,100.00
2019-02-14T05:59:39.182Z,100.00
2019-02-14T06:02:06.071Z,100.00
2019-02-14T06:04:33.035Z,100.00
2019-02-14T06:07:01.280Z,100.00
2019-02-14T06:09:28.451Z,100.00
2019-02-14T06:11:55.348Z,100.00
2019-02-14T06:14:22.293Z,100.00
2019-02-14T06:16:49.194Z,100.00
2019-02-14T06:19:16.122Z,100.00
2019-02-14T06:21:43.013Z,100.00
2019-02-14T06:24:09.929Z,100.00
2019-02-14T06:26:36.833Z,100.00
2019-02-14T06:29:03.757Z,100.00
2019-02-14T06:31:30.675Z,100.00
2019-02-14T06:33:57.579Z,100.00
2019-02-14T06:36:24.464Z,100.00
2019-02-14T06:38:51.382Z,100.00
2019-02-14T06:41:18.271Z,100.00
2019-02-14T06:43:45.185Z,100.00
2019-02-14T06:46:12.062Z,100.00
2019-02-14T06:48:38.971Z,100.00
2019-02-14T06:51:05.854Z,100.00
2019-02-14T06:53:32.785Z,100.00
2019-02-14T06:55:59.664Z,100.00
2019-02-14T06:58:26.589Z,100.00
2019-02-14T07:00:53.511Z,100.00
2019-02-14T07:03:20.466Z,100.00
2019-02-14T07:05:47.354Z,100.00
2019-02-14T07:08:14.280Z,100.00
2019-02-14T07:10:41.227Z,100.00
2019-02-14T07:13:08.118Z,100.00
2019-02-14T07:15:35.077Z,100.00
2019-02-14T07:18:01.958Z,100.00
2019-02-14T07:20:28.879Z,100.00
2019-02-14T07:22:55.813Z,100.00
2019-02-14T07:25:23.061Z,100.00
2019-02-14T07:27:49.937Z,100.00
2019-02-14T07:30:18.117Z,100.00
2019-02-14T07:32:44.988Z,100.00
2019-02-14T07:35:12.005Z,100.00
2019-02-14T07:37:38.889Z,100.00
2019-02-14T07:40:07.936Z,100.00
2019-02-14T07:42:34.817Z,100.00
2019-02-14T07:45:01.778Z,100.00
2019-02-14T07:47:28.638Z,100.00
2019-02-14T07:49:55.545Z,100.00
2019-02-14T07:52:25.288Z,100.00
2019-02-14T07:54:51.260Z,100.00
2019-02-14T07:57:18.155Z,100.00
2019-02-14T07:59:45.068Z,100.00
2019-02-14T08:02:11.973Z,100.00
2019-02-14T08:04:38.917Z,100.00
2019-02-14T08:07:05.800Z,100.00
2019-02-14T08:09:32.691Z,100.00
2019-02-14T08:11:59.677Z,100.00
2019-02-14T08:14:26.578Z,100.00
2019-02-14T08:16:53.525Z,100.00
2019-02-14T08:19:20.476Z,100.00
2019-02-14T08:21:47.413Z,100.00
2019-02-14T08:24:14.509Z,100.00
2019-02-14T08:26:41.461Z,100.00
2019-02-14T08:29:08.704Z,100.00
2019-02-14T08:31:35.662Z,100.00
2019-02-14T08:34:02.792Z,100.00
2019-02-14T08:36:29.754Z,100.00
2019-02-14T08:38:56.591Z,100.00
2019-02-14T08:41:23.523Z,100.00
2019-02-14T08:43:50.413Z,100.00
2019-02-14T08:46:18.702Z,100.00
2019-02-14T08:48:45.765Z,100.00
2019-02-14T08:51:12.700Z,100.00
2019-02-14T08:53:39.664Z,100.00
2019-02-14T08:56:06.601Z,100.00
2019-02-14T08:58:33.497Z,100.00
2019-02-14T09:01:00.452Z,99.53
2019-02-14T09:03:27.346Z,98.83
2019-02-14T09:05:54.274Z,99.69
2019-02-14T09:08:21.218Z,99.17
2019-02-14T09:10:48.100Z,98.94
2019-02-14T09:13:17.278Z,98.38
2019-02-14T09:15:43.920Z,98.40
2019-02-14T09:18:10.958Z,97.97
2019-02-14T09:20:37.871Z,96.53
2019-02-14T09:23:04.817Z,95.57
2019-02-14T09:25:31.723Z,94.90
2019-02-14T09:27:58.742Z,94.72
2019-02-14T09:30:25.625Z,95.12
2019-02-14T09:32:52.671Z,94.91
2019-02-14T09:35:19.577Z,95.35
2019-02-14T09:37:46.517Z,96.40
2019-02-14T09:40:13.473Z,96.57
2019-02-14T09:42:40.472Z,96.93
2019-02-14T09:45:08.620Z,96.13
2019-02-14T09:47:35.525Z,95.00
2019-02-14T09:50:02.765Z,93.55
2019-02-14T09:52:29.758Z,94.98
2019-02-14T09:54:56.688Z,94.98
2019-02-14T09:57:23.586Z,94.31
2019-02-14T09:59:50.500Z,95.27
2019-02-14T10:02:17.552Z,94.07
2019-02-14T10:04:44.439Z,92.49
2019-02-14T10:07:11.825Z,92.80
2019-02-14T10:09:38.833Z,91.90
2019-02-14T10:12:05.859Z,94.00
2019-02-14T10:14:32.791Z,92.92
2019-02-14T10:16:59.726Z,90.71
2019-02-14T10:19:28.677Z,89.10
2019-02-14T10:21:55.493Z,90.71
2019-02-14T10:24:22.430Z,87.71
2019-02-14T10:26:49.324Z,86.67
2019-02-14T10:29:16.268Z,86.10
2019-02-14T10:31:43.207Z,85.31
2019-02-14T10:34:10.126Z,83.72
2019-02-14T10:36:37.033Z,84.81
2019-02-14T10:39:04.759Z,86.02
2019-02-14T10:41:31.711Z,84.77
2019-02-14T10:43:58.651Z,85.30
2019-02-14T10:46:25.564Z,86.36
2019-02-14T10:48:52.517Z,85.41
2019-02-14T10:51:19.431Z,84.62
2019-02-14T10:53:46.422Z,87.35
2019-02-14T10:56:13.363Z,81.33
2019-02-14T10:58:40.329Z,82.75
2019-02-14T11:01:07.280Z,80.75
2019-02-14T11:03:34.348Z,77.35
2019-02-14T11:06:01.280Z,75.60
2019-02-14T11:08:31.670Z,78.74
2019-02-14T11:10:57.145Z,74.04
2019-02-14T11:13:24.123Z,70.98
2019-02-14T11:15:51.272Z,68.97
2019-02-14T11:18:18.285Z,71.00
2019-02-14T11:20:45.200Z,71.40
2019-02-14T11:23:12.278Z,66.87
2019-02-14T11:25:39.256Z,67.15
2019-02-14T11:28:06.172Z,69.08
2019-02-14T11:30:33.180Z,64.79
2019-02-14T11:33:00.058Z,68.22
2019-02-14T11:35:27.006Z,65.89
2019-02-14T11:37:54.045Z,65.82
2019-02-14T11:40:20.963Z,64.47
2019-02-14T11:42:47.966Z,64.78
2019-02-14T11:45:16.231Z,64.30
2019-02-14T11:47:43.158Z,63.30
2019-02-14T11:50:10.371Z,62.14
2019-02-14T11:52:37.462Z,60.74
2019-02-14T11:55:04.846Z,59.38
2019-02-14T11:57:31.750Z,59.62
2019-02-14T11:59:58.693Z,61.53
2019-02-14T12:02:25.608Z,60.80
2019-02-14T12:04:53.633Z,58.28
2019-02-14T12:07:22.194Z,56.47
2019-02-14T12:09:51.237Z,57.23
2019-02-14T12:12:18.131Z,60.45
2019-02-14T12:14:45.131Z,55.60
2019-02-14T12:17:12.116Z,58.99
2019-02-14T12:19:39.031Z,59.21
2019-02-14T12:22:06.132Z,60.28
2019-02-14T12:24:33.023Z,61.62
2019-02-14T12:27:00.367Z,62.91
2019-02-14T12:29:27.456Z,63.09
2019-02-14T12:31:54.345Z,56.93
2019-02-14T12:34:21.349Z,58.54
2019-02-14T12:36:48.424Z,57.34
2019-02-14T12:39:15.343Z,60.83
2019-02-14T12:41:42.533Z,60.10
2019-02-14T12:44:09.463Z,56.70
2019-02-14T12:46:37.938Z,53.60
2019-02-14T12:49:04.933Z,49.29
2019-02-14T12:51:31.944Z,51.46
2019-02-14T12:53:58.943Z,50.24
2019-02-14T12:56:26.226Z,51.09
2019-02-14T12:58:53.816Z,51.01
2019-02-14T13:01:22.013Z,51.58
2019-02-14T13:03:51.272Z,50.16
2019-02-14T13:06:19.361Z,52.30
2019-02-14T13:08:46.292Z,49.71
2019-02-14T13:11:13.355Z,54.15
2019-02-14T13:13:40.279Z,53.27
2019-02-14T13:16:07.255Z,50.07
2019-02-14T13:18:34.175Z,50.67
2019-02-14T13:21:01.131Z,50.96
2019-02-14T13:23:28.082Z,50.32
2019-02-14T13:25:55.118Z,47.74
2019-02-14T13:28:22.033Z,48.31
2019-02-14T13:30:49.314Z,49.11
2019-02-14T13:33:16.862Z,46.86
2019-02-14T13:35:43.823Z,49.45
2019-02-14T13:38:10.744Z,49.20
2019-02-14T13:40:37.846Z,45.40
2019-02-14T13:43:04.775Z,47.92
2019-02-14T13:45:31.744Z,42.88
2019-02-14T13:47:58.866Z,48.44
2019-02-14T13:50:25.788Z,48.01
2019-02-14T13:52:52.694Z,46.50
2019-02-14T13:55:19.669Z,46.52
2019-02-14T13:57:46.620Z,47.96
2019-02-14T14:00:16.625Z,44.53
2019-02-14T14:02:43.590Z,49.67
2019-02-14T14:05:10.498Z,47.83
2019-02-14T14:07:40.494Z,47.79
2019-02-14T14:10:06.976Z,46.17
2019-02-14T14:12:34.020Z,48.42
2019-02-14T14:15:00.974Z,47.61
2019-02-14T14:17:27.945Z,46.29
2019-02-14T14:19:54.884Z,44.94
2019-02-14T14:22:21.918Z,46.97
2019-02-14T14:24:48.876Z,45.61
2019-02-14T14:27:15.859Z,43.63
2019-02-14T14:29:42.768Z,46.38
2019-02-14T14:32:09.693Z,47.65
2019-02-14T14:34:36.585Z,47.99
2019-02-14T14:37:03.586Z,47.70
2019-02-14T14:39:30.475Z,44.29
2019-02-14T14:41:57.404Z,46.43
2019-02-14T14:44:32.249Z,43.93
2019-02-14T14:47:01.936Z,43.25
2019-02-14T14:49:28.838Z,43.96
2019-02-14T14:51:55.807Z,45.03
2019-02-14T14:54:22.695Z,43.34
2019-02-14T14:56:49.641Z,45.88
2019-02-14T14:59:16.541Z,45.88
2019-02-14T15:01:43.818Z,47.50
2019-02-14T15:04:10.974Z,48.35
2019-02-14T15:06:37.959Z,44.88
2019-02-14T15:09:05.949Z,50.55
2019-02-14T15:11:32.871Z,47.94
2019-02-14T15:13:59.812Z,47.68
2019-02-14T15:16:26.746Z,49.23
2019-02-14T15:18:53.683Z,47.17
2019-02-14T15:21:20.638Z,47.91
2019-02-14T15:23:47.831Z,51.50
2019-02-14T15:26:14.721Z,47.72
2019-02-14T15:28:41.659Z,50.23
2019-02-14T15:31:08.598Z,49.64
2019-02-14T15:33:35.592Z,52.28
2019-02-14T15:36:02.492Z,51.40
2019-02-14T15:38:29.434Z,50.91
2019-02-14T15:40:56.340Z,50.29
2019-02-14T15:43:23.270Z,51.46
2019-02-14T15:45:50.301Z,49.90
2019-02-14T15:48:17.291Z,49.21
2019-02-14T15:50:44.193Z,49.74
2019-02-14T15:53:11.122Z,50.15
2019-02-14T15:55:39.086Z,53.79
2019-02-14T15:58:09.167Z,53.80
2019-02-14T16:00:35.743Z,56.54
2019-02-14T16:03:02.696Z,56.97
2019-02-14T16:05:29.620Z,54.41
2019-02-14T16:07:56.571Z,56.09
2019-02-14T16:10:25.528Z,56.01
2019-02-14T16:12:52.397Z,57.62
2019-02-14T16:15:19.354Z,57.74
2019-02-14T16:17:46.268Z,58.21
2019-02-14T16:20:15.176Z,59.05
2019-02-14T16:22:44.045Z,61.99
2019-02-14T16:25:11.097Z,62.59
2019-02-14T16:27:38.185Z,62.59
2019-02-14T16:30:07.709Z,62.93
2019-02-14T16:32:34.615Z,62.93
2019-02-14T16:35:01.539Z,65.85
2019-02-14T16:37:28.438Z,66.62
2019-02-14T16:39:56.842Z,66.07
2019-02-14T16:42:24.328Z,67.21
2019-02-14T16:44:51.260Z,67.48
2019-02-14T16:47:18.170Z,69.67
2019-02-14T16:49:45.108Z,69.08
2019-02-14T16:52:12.010Z,67.91
2019-02-14T16:54:38.948Z,69.14
2019-02-14T16:57:05.837Z,70.01
2019-02-14T16:59:32.782Z,71.28
2019-02-14T17:01:59.671Z,70.36
2019-02-14T17:04:26.606Z,69.75
2019-02-14T17:06:53.506Z,70.39
2019-02-14T17:09:20.499Z,71.85
2019-02-14T17:11:47.405Z,72.00
2019-02-14T17:14:14.463Z,73.82
2019-02-14T17:16:41.467Z,73.13
2019-02-14T17:19:08.401Z,73.51
2019-02-14T17:21:35.281Z,74.10
2019-02-14T17:24:02.201Z,75.50
2019-02-14T17:26:29.089Z,76.43
2019-02-14T17:28:56.231Z,75.76
2019-02-14T17:31:23.183Z,75.90
2019-02-14T17:33:50.124Z,77.02
2019-02-14T17:36:17.117Z,77.70
2019-02-14T17:38:44.046Z,77.88
2019-02-14T17:41:10.939Z,78.66
2019-02-14T17:43:37.826Z,78.76
2019-02-14T17:46:04.811Z,78.77
2019-02-14T17:48:31.725Z,78.97
2019-02-14T17:50:58.632Z,79.78
2019-02-14T17:53:25.532Z,79.09
2019-02-14T17:55:52.458Z,80.00
2019-02-14T17:58:19.362Z,80.32
2019-02-14T18:00:46.285Z,80.50
2019-02-14T18:03:13.205Z,79.99
2019-02-14T18:05:40.136Z,80.62
2019-02-14T18:08:07.059Z,81.29
2019-02-14T18:10:34.021Z,81.52
2019-02-14T18:13:00.939Z,82.22
2019-02-14T18:15:27.918Z,82.75
2019-02-14T18:17:54.932Z,83.40
2019-02-14T18:20:22.000Z,83.49
2019-02-14T18:22:48.923Z,83.59
2019-02-14T18:25:15.877Z,83.65
2019-02-14T18:27:42.787Z,84.20
2019-02-14T18:30:09.939Z,84.17
2019-02-14T18:32:36.848Z,84.65
2019-02-14T18:35:05.001Z,84.89
2019-02-14T18:37:31.906Z,84.40
2019-02-14T18:39:58.830Z,84.26
2019-02-14T18:42:25.799Z,84.68
2019-02-14T18:44:52.792Z,84.97
2019-02-14T18:47:20.008Z,85.09
2019-02-14T18:49:46.981Z,84.10
2019-02-14T18:52:13.955Z,85.08
2019-02-14T18:54:40.962Z,85.31
2019-02-14T18:57:07.897Z,85.80
2019-02-14T18:59:34.823Z,86.35
2019-02-14T19:02:01.774Z,86.93
2019-02-14T19:04:28.676Z,87.11
2019-02-14T19:06:55.958Z,86.96
2019-02-14T19:09:23.131Z,87.36
2019-02-14T19:11:50.063Z,88.07
2019-02-14T19:14:16.949Z,88.77
2019-02-14T19:16:43.932Z,88.58
2019-02-14T19:19:10.810Z,88.52
2019-02-14T19:21:37.748Z,89.05
2019-02-14T19:24:04.658Z,89.68
2019-02-14T19:26:31.666Z,89.84
2019-02-14T19:28:58.588Z,90.00
2019-02-14T19:31:25.801Z,89.94
2019-02-14T19:33:52.687Z,89.76
2019-02-14T19:36:19.630Z,90.78
2019-02-14T19:38:46.531Z,91.66
2019-02-14T19:41:13.481Z,90.62
2019-02-14T19:43:40.391Z,91.35
2019-02-14T19:46:07.323Z,91.27
2019-02-14T19:48:34.348Z,91.58
2019-02-14T19:51:01.257Z,92.21
2019-02-14T19:53:28.150Z,92.73
2019-02-14T19:55:55.160Z,92.91
2019-02-14T19:58:22.077Z,93.66
2019-02-14T20:00:49.039Z,93.70
2019-02-14T20:03:15.967Z,93.27
2019-02-14T20:05:42.923Z,93.42
2019-02-14T20:08:09.846Z,92.92
2019-02-14T20:10:36.784Z,93.17
2019-02-14T20:13:04.010Z,93.99
2019-02-14T20:15:37.171Z,93.45
2019-02-14T20:17:59.822Z,93.50
2019-02-14T20:20:26.768Z,93.61
2019-02-14T20:22:53.660Z,94.86
2019-02-14T20:25:21.716Z,93.92
2019-02-14T20:27:50.017Z,92.41
2019-02-14T20:30:17.141Z,92.42
2019-02-14T20:32:44.123Z,92.11
2019-02-14T20:35:11.061Z,91.82
2019-02-14T20:37:37.988Z,91.86
2019-02-14T20:40:05.562Z,90.27
2019-02-14T20:42:32.503Z,90.62
2019-02-14T20:44:59.393Z,91.04
2019-02-14T20:47:26.334Z,90.87
2019-02-14T20:49:53.240Z,91.07
2019-02-14T20:52:20.162Z,90.89
2019-02-14T20:54:47.538Z,90.63
2019-02-14T20:57:14.465Z,91.21
2019-02-14T20:59:41.617Z,90.95
2019-02-14T21:02:08.542Z,91.20
2019-02-14T21:04:35.437Z,91.86
2019-02-14T21:07:02.398Z,91.71
2019-02-14T21:09:29.316Z,91.87
2019-02-14T21:11:56.276Z,91.56
2019-02-14T21:14:23.170Z,91.21
2019-02-14T21:16:50.358Z,91.39
2019-02-14T21:19:17.270Z,91.85
2019-02-14T21:21:44.267Z,92.25
2019-02-14T21:24:11.295Z,92.63
2019-02-14T21:26:38.339Z,92.22
2019-02-14T21:29:05.266Z,91.59
2019-02-14T21:31:32.253Z,92.34
2019-02-14T21:33:59.141Z,92.54
2019-02-14T21:36:26.050Z,92.50
2019-02-14T21:38:53.059Z,92.34
2019-02-14T21:41:20.022Z,92.64
2019-02-14T21:43:46.953Z,92.21
2019-02-14T21:46:13.863Z,92.19
2019-02-14T21:48:40.785Z,92.58
2019-02-14T21:51:07.665Z,92.79
2019-02-14T21:53:34.586Z,93.86
2019-02-14T21:56:01.442Z,94.85
2019-02-14T21:58:28.375Z,94.79
2019-02-14T22:00:55.457Z,94.46
2019-02-14T22:03:22.385Z,94.64
2019-02-14T22:05:49.276Z,94.48
2019-02-14T22:08:16.591Z,94.36
2019-02-14T22:10:43.466Z,94.54
2019-02-14T22:13:10.463Z,94.87
2019-02-14T22:15:37.398Z,94.64
2019-02-14T22:18:04.369Z,94.54
2019-02-14T22:20:31.350Z,94.58
2019-02-14T22:22:58.430Z,94.83
2019-02-14T22:25:25.370Z,94.64
2019-02-14T22:27:52.308Z,94.65
2019-02-14T22:30:19.496Z,94.63
2019-02-14T22:32:46.494Z,95.39
2019-02-14T22:35:13.389Z,96.16
2019-02-14T22:37:40.360Z,95.61
2019-02-14T22:40:07.848Z,95.72
2019-02-14T22:42:35.071Z,95.87
2019-02-14T22:45:01.929Z,95.93
2019-02-14T22:47:28.995Z,95.89
2019-02-14T22:49:55.930Z,96.08
2019-02-14T22:52:23.032Z,96.40
2019-02-14T22:54:49.993Z,97.00
2019-02-14T22:57:16.886Z,97.40
2019-02-14T22:59:43.868Z,97.07
2019-02-14T23:02:10.895Z,96.66
2019-02-14T23:04:37.838Z,97.12
2019-02-14T23:07:05.015Z,97.54
2019-02-14T23:09:32.015Z,97.45
2019-02-14T23:11:58.976Z,96.97
2019-02-14T23:14:25.919Z,97.05
2019-02-14T23:16:52.881Z,97.03
2019-02-14T23:19:19.818Z,97.15
2019-02-14T23:21:46.800Z,97.49
2019-02-14T23:24:13.880Z,97.26
2019-02-14T23:26:40.789Z,97.31
2019-02-14T23:29:07.727Z,97.56
2019-02-14T23:31:34.631Z,97.59
2019-02-14T23:34:01.557Z,97.58
2019-02-14T23:36:28.501Z,97.26
2019-02-14T23:38:55.410Z,97.00
2019-02-14T23:41:24.642Z,97.80
2019-02-14T23:43:51.552Z,98.08
2019-02-14T23:46:18.515Z,98.23
2019-02-14T23:48:45.517Z,98.29
2019-02-14T23:51:12.434Z,98.32
2019-02-14T23:53:39.376Z,98.22
2019-02-14T23:56:06.278Z,98.35
2019-02-14T23:58:33.273Z,98.31
